Time;durP1;ratioP1;P1;durP2;ratioP2;P2;SDS_P1;SDS_P2;PMS_P1;PMS_P2;Temp;Humidity;BMP_temperature;BMP_pressure;BME280_temperature;BME280_humidity;BME280_pressure;Samples;Min_cycle;Max_cycle;Signal;HPM_P1;HPM_P2
2023/12/11 00:01:55;;;;;;;0.80;0.77;;;8.90;99.90;;;;;;5008576;28;20210;-57
2023/12/11 00:04:22;;;;;;;1.53;0.43;;;8.70;99.90;;;;;;5010386;28;20199;-57
2023/12/11 00:06:49;;;;;;;0.60;0.57;;;8.60;99.90;;;;;;5013218;28;20663;-57
2023/12/11 00:09:18;;;;;;;2.00;0.50;;;8.50;99.90;;;;;;5011106;28;20253;-57
2023/12/11 00:11:48;;;;;;;1.93;0.57;;;8.40;99.90;;;;;;5011886;28;20699;-56
2023/12/11 00:14:15;;;;;;;0.87;0.37;;;8.40;99.90;;;;;;5005591;28;20288;-57
2023/12/11 00:16:43;;;;;;;1.60;0.50;;;8.40;99.90;;;;;;5007964;28;20228;-57
2023/12/11 00:19:10;;;;;;;2.10;0.40;;;8.30;99.90;;;;;;5007244;28;20255;-57
2023/12/11 00:21:37;;;;;;;0.80;0.40;;;8.20;99.90;;;;;;5001089;28;20669;-57
2023/12/11 00:24:06;;;;;;;0.47;0.30;;;8.10;99.90;;;;;;5003905;28;20214;-57
2023/12/11 00:26:34;;;;;;;0.57;0.40;;;8.10;99.90;;;;;;5006866;28;20265;-56
2023/12/11 00:29:01;;;;;;;0.63;0.30;;;8.10;99.90;;;;;;5002543;28;20605;-57
2023/12/11 00:31:28;;;;;;;0.10;0.10;;;8.20;99.90;;;;;;5008329;28;20195;-57
2023/12/11 00:33:55;;;;;;;0.23;0.13;;;8.30;99.90;;;;;;5010475;28;20212;-57
2023/12/11 00:36:22;;;;;;;1.37;0.10;;;8.40;99.90;;;;;;5010512;28;20225;-57
2023/12/11 00:38:49;;;;;;;0.47;0.00;;;8.40;99.90;;;;;;5009641;28;20236;-57
2023/12/11 00:41:17;;;;;;;0.10;0.10;;;8.50;99.90;;;;;;5010558;28;20205;-56
2023/12/11 00:43:45;;;;;;;2.00;0.10;;;8.50;99.90;;;;;;5008501;28;20228;-57
2023/12/11 00:46:13;;;;;;;0.10;0.10;;;8.60;99.90;;;;;;5004815;28;20202;-57
2023/12/11 00:48:40;;;;;;;0.10;0.10;;;8.70;99.90;;;;;;5006100;28;20225;-57
2023/12/11 00:51:07;;;;;;;0.10;0.10;;;8.70;99.90;;;;;;5010172;28;20621;-57
2023/12/11 00:53:34;;;;;;;0.70;0.10;;;8.90;99.90;;;;;;5009783;28;20228;-56
2023/12/11 00:56:01;;;;;;;0.37;0.10;;;8.90;99.90;;;;;;5010038;28;20275;-56
2023/12/11 00:58:29;;;;;;;0.33;0.10;;;8.90;99.90;;;;;;5009265;28;20225;-57
2023/12/11 01:00:58;;;;;;;2.83;0.00;;;8.80;99.90;;;;;;5009750;28;20201;-57
2023/12/11 01:03:25;;;;;;;1.30;0.00;;;8.80;99.90;;;;;;5011107;28;20229;-57
2023/12/11 01:05:52;;;;;;;0.77;0.00;;;8.80;99.90;;;;;;5011840;28;20197;-57
2023/12/11 01:08:19;;;;;;;0.33;0.30;;;8.80;99.90;;;;;;5010156;28;20233;-56
2023/12/11 01:10:46;;;;;;;1.23;0.00;;;8.80;99.90;;;;;;5011746;28;20206;-57
2023/12/11 01:13:13;;;;;;;0.20;0.03;;;8.80;99.90;;;;;;5012356;28;20211;-57
2023/12/11 01:15:40;;;;;;;0.00;0.00;;;8.90;99.90;;;;;;5013165;28;20222;-57
2023/12/11 01:18:09;;;;;;;0.00;0.00;;;8.90;99.90;;;;;;5012791;28;20228;-57
2023/12/11 01:20:36;;;;;;;0.10;0.10;;;8.90;99.90;;;;;;5011148;28;20202;-56
2023/12/11 01:23:03;;;;;;;0.03;0.00;;;9.00;99.90;;;;;;5003056;28;20209;-57
2023/12/11 01:25:30;;;;;;;0.30;0.00;;;9.00;99.90;;;;;;5010850;28;20229;-56
2023/12/11 01:27:57;;;;;;;0.20;0.10;;;9.00;99.90;;;;;;5010837;28;20220;-56
2023/12/11 01:30:24;;;;;;;0.00;0.00;;;9.00;99.90;;;;;;5012614;28;20307;-56
2023/12/11 01:32:51;;;;;;;0.03;0.00;;;9.00;99.90;;;;;;5002518;28;20206;-57
2023/12/11 01:35:19;;;;;;;1.07;0.20;;;9.00;99.90;;;;;;5009982;28;20233;-57
2023/12/11 01:37:46;;;;;;;0.87;0.10;;;8.90;99.90;;;;;;5007446;28;20226;-57
2023/12/11 01:40:13;;;;;;;0.00;0.00;;;8.80;99.90;;;;;;5001152;28;20205;-57
2023/12/11 01:42:40;;;;;;;0.00;0.00;;;8.80;99.90;;;;;;5001957;28;20216;-56
2023/12/11 01:45:08;;;;;;;1.80;0.10;;;8.80;99.90;;;;;;5010378;28;20213;-57
2023/12/11 01:47:35;;;;;;;2.53;0.87;;;8.90;99.90;;;;;;5009643;28;20217;-57
2023/12/11 01:50:03;;;;;;;0.83;0.10;;;8.90;99.90;;;;;;5013423;28;20206;-56
2023/12/11 01:52:31;;;;;;;0.07;0.03;;;8.90;99.90;;;;;;5011268;28;20225;-56
2023/12/11 01:54:58;;;;;;;0.20;0.10;;;8.90;99.90;;;;;;5012628;28;20197;-57
2023/12/11 01:57:25;;;;;;;0.00;0.00;;;8.90;99.90;;;;;;5013848;28;20708;-57
2023/12/11 01:59:53;;;;;;;0.80;0.00;;;8.90;99.90;;;;;;5010711;28;20211;-57
2023/12/11 02:02:20;;;;;;;0.20;0.20;;;8.90;99.90;;;;;;5012764;28;20210;-57
2023/12/11 02:04:49;;;;;;;0.60;0.07;;;8.90;99.90;;;;;;5010730;28;20734;-56
2023/12/11 02:07:16;;;;;;;0.03;0.03;;;8.80;99.90;;;;;;5009215;28;20198;-57
2023/12/11 02:09:45;;;;;;;0.00;0.00;;;8.80;99.90;;;;;;5014174;28;20197;-57
2023/12/11 02:12:12;;;;;;;2.10;0.20;;;8.80;99.90;;;;;;5012802;28;20213;-57
2023/12/11 02:14:40;;;;;;;0.40;0.10;;;8.70;99.90;;;;;;5010675;28;20212;-56
2023/12/11 02:17:09;;;;;;;0.23;0.00;;;8.70;99.90;;;;;;5012921;28;20228;-57
2023/12/11 02:19:37;;;;;;;0.17;0.17;;;8.70;99.90;;;;;;5005147;28;20202;-56
2023/12/11 02:22:04;;;;;;;0.20;0.00;;;8.70;99.90;;;;;;5007274;28;20228;-57
2023/12/11 02:24:34;;;;;;;1.03;0.00;;;8.60;99.90;;;;;;5011523;28;20212;-57
2023/12/11 02:27:02;;;;;;;0.13;0.00;;;8.60;99.90;;;;;;5011303;28;20677;-56
2023/12/11 02:29:29;;;;;;;0.57;0.10;;;8.50;99.90;;;;;;5005016;28;20292;-57
2023/12/11 02:31:56;;;;;;;0.83;0.53;;;8.50;99.90;;;;;;5004862;28;20218;-57
2023/12/11 02:34:23;;;;;;;0.00;0.00;;;8.50;99.90;;;;;;5003302;28;20293;-57
2023/12/11 02:36:52;;;;;;;0.10;0.10;;;8.40;99.90;;;;;;5011975;28;20304;-57
2023/12/11 02:39:19;;;;;;;0.60;0.00;;;8.30;99.90;;;;;;5012311;28;20231;-57
2023/12/11 02:41:47;;;;;;;0.00;0.00;;;8.30;99.90;;;;;;5012618;28;20588;-57
2023/12/11 02:44:15;;;;;;;1.33;0.00;;;8.30;99.90;;;;;;5006269;28;20253;-57
2023/12/11 02:46:45;;;;;;;3.30;0.10;;;8.20;99.90;;;;;;5010303;28;20203;-56
2023/12/11 02:49:12;;;;;;;0.20;0.00;;;8.20;99.90;;;;;;5007969;28;20227;-56
2023/12/11 02:51:39;;;;;;;0.20;0.00;;;8.10;99.90;;;;;;5013241;28;20208;-57
2023/12/11 02:54:06;;;;;;;0.00;0.00;;;8.00;99.90;;;;;;5007907;28;20208;-56
2023/12/11 02:56:33;;;;;;;0.00;0.00;;;8.10;99.90;;;;;;5009803;28;20225;-57
2023/12/11 02:59:00;;;;;;;0.00;0.00;;;8.10;99.90;;;;;;5008770;28;20227;-56
2023/12/11 03:01:29;;;;;;;0.00;0.00;;;8.00;99.90;;;;;;5007920;28;20213;-56
2023/12/11 03:03:56;;;;;;;0.10;0.10;;;8.00;99.90;;;;;;5013066;28;20201;-56
2023/12/11 03:06:23;;;;;;;0.00;0.00;;;8.00;99.90;;;;;;5017497;28;20208;-57
2023/12/11 03:08:50;;;;;;;1.40;0.00;;;7.90;99.90;;;;;;4999337;28;20279;-56
2023/12/11 03:11:17;;;;;;;0.10;0.10;;;8.00;99.90;;;;;;5011164;28;20208;-56
2023/12/11 03:13:44;;;;;;;0.43;0.10;;;8.00;99.90;;;;;;5011234;28;20201;-56
2023/12/11 03:16:13;;;;;;;0.03;0.00;;;8.00;99.90;;;;;;5011785;28;20224;-57
2023/12/11 03:18:42;;;;;;;0.93;0.00;;;8.00;99.90;;;;;;5007403;28;20230;-57
2023/12/11 03:21:09;;;;;;;0.00;0.00;;;8.00;99.90;;;;;;5008499;28;20217;-57
2023/12/11 03:23:36;;;;;;;0.00;0.00;;;8.00;99.90;;;;;;5013853;28;20553;-57
2023/12/11 03:26:04;;;;;;;0.10;0.10;;;7.90;99.90;;;;;;5011176;28;20210;-57
2023/12/11 03:28:31;;;;;;;0.27;0.10;;;7.90;99.90;;;;;;5008530;28;20705;-57
2023/12/11 03:30:58;;;;;;;0.10;0.10;;;7.90;99.90;;;;;;5005809;28;20199;-56
2023/12/11 03:33:25;;;;;;;1.43;0.23;;;7.90;99.90;;;;;;5011340;28;20209;-56
2023/12/11 03:35:53;;;;;;;0.20;0.10;;;8.00;99.90;;;;;;5012444;28;20209;-57
2023/12/11 03:38:20;;;;;;;0.97;0.10;;;7.90;99.90;;;;;;5010774;28;20235;-57
2023/12/11 03:40:47;;;;;;;0.10;0.03;;;7.80;99.90;;;;;;5011735;28;20847;-57
2023/12/11 03:43:14;;;;;;;0.30;0.00;;;7.90;99.90;;;;;;5010673;28;20220;-57
2023/12/11 03:45:42;;;;;;;0.83;0.13;;;8.10;99.90;;;;;;5016161;28;20673;-57
2023/12/11 03:48:09;;;;;;;0.10;0.10;;;8.30;99.90;;;;;;5010338;28;20221;-57
2023/12/11 03:50:35;;;;;;;0.30;0.10;;;8.30;99.90;;;;;;5012267;28;20201;-57
2023/12/11 03:53:04;;;;;;;0.10;0.10;;;8.30;99.90;;;;;;5012462;28;20208;-57
2023/12/11 03:55:31;;;;;;;1.40;0.10;;;8.30;99.90;;;;;;5010834;28;20201;-56
2023/12/11 03:57:58;;;;;;;1.70;0.10;;;8.30;99.90;;;;;;5018003;28;20224;-56
2023/12/11 04:00:25;;;;;;;0.10;0.00;;;8.30;99.90;;;;;;5015135;28;20201;-57
2023/12/11 04:02:52;;;;;;;0.10;0.10;;;8.30;99.90;;;;;;5012289;28;20711;-57
2023/12/11 04:05:19;;;;;;;0.07;0.07;;;8.30;99.90;;;;;;5011629;28;20208;-57
2023/12/11 04:07:46;;;;;;;0.00;0.00;;;8.20;99.90;;;;;;5008970;28;20628;-57
2023/12/11 04:10:14;;;;;;;0.60;0.10;;;8.10;99.90;;;;;;5007909;28;20209;-56
2023/12/11 04:12:43;;;;;;;0.00;0.00;;;8.10;99.90;;;;;;5027595;28;20201;-57
2023/12/11 04:15:11;;;;;;;0.20;0.10;;;8.10;99.90;;;;;;5031887;28;20240;-57
2023/12/11 04:17:38;;;;;;;0.57;0.10;;;8.20;99.90;;;;;;5031487;28;20282;-56
2023/12/11 04:20:06;;;;;;;0.43;0.20;;;8.20;99.90;;;;;;5029561;28;20206;-57
2023/12/11 04:22:32;;;;;;;0.10;0.03;;;8.20;99.90;;;;;;5011394;28;20216;-57
2023/12/11 04:25:00;;;;;;;2.00;0.10;;;8.20;99.90;;;;;;5011812;28;20208;-57
2023/12/11 04:27:28;;;;;;;0.50;0.00;;;8.10;99.90;;;;;;5020597;28;20684;-57
2023/12/11 04:29:55;;;;;;;0.10;0.10;;;8.10;99.90;;;;;;5010280;28;20212;-57
2023/12/11 04:32:22;;;;;;;0.00;0.00;;;8.10;99.90;;;;;;5011920;28;20200;-57
2023/12/11 04:34:49;;;;;;;0.00;0.00;;;8.10;99.90;;;;;;5009537;28;20205;-57
2023/12/11 04:37:16;;;;;;;1.70;0.10;;;8.10;99.90;;;;;;5010786;28;20602;-56
2023/12/11 04:39:43;;;;;;;0.50;0.20;;;8.10;99.90;;;;;;5011709;28;20208;-56
2023/12/11 04:42:10;;;;;;;0.10;0.10;;;8.20;99.90;;;;;;5011744;28;20200;-57
2023/12/11 04:44:39;;;;;;;1.23;0.43;;;8.20;99.90;;;;;;5011957;28;20213;-57
2023/12/11 04:47:06;;;;;;;0.10;0.00;;;8.20;99.90;;;;;;5010048;28;20723;-56
2023/12/11 04:49:33;;;;;;;0.10;0.07;;;8.20;99.90;;;;;;5010009;28;20613;-57
2023/12/11 04:52:00;;;;;;;0.20;0.20;;;8.20;99.90;;;;;;5011588;28;20209;-56
2023/12/11 04:54:27;;;;;;;0.57;0.13;;;8.20;99.90;;;;;;5010255;28;20236;-56
2023/12/11 04:56:54;;;;;;;0.93;0.03;;;8.20;99.90;;;;;;5011569;28;20216;-57
2023/12/11 04:59:21;;;;;;;0.10;0.00;;;8.30;99.90;;;;;;5010086;28;20229;-57
2023/12/11 05:01:51;;;;;;;0.40;0.10;;;8.40;99.90;;;;;;5011490;28;20713;-57
2023/12/11 05:04:18;;;;;;;0.10;0.10;;;8.40;99.90;;;;;;5011620;28;20212;-56
2023/12/11 05:06:46;;;;;;;1.13;0.10;;;8.50;99.90;;;;;;5020009;28;20188;-57
2023/12/11 05:09:13;;;;;;;0.10;0.10;;;8.50;99.90;;;;;;5015983;28;20228;-56
2023/12/11 05:11:40;;;;;;;0.10;0.10;;;8.50;99.90;;;;;;5010650;28;20210;-57
2023/12/11 05:14:07;;;;;;;0.80;0.10;;;8.50;99.90;;;;;;5010588;28;20201;-57
2023/12/11 05:16:35;;;;;;;0.10;0.10;;;8.50;99.90;;;;;;5011512;28;20262;-57
2023/12/11 05:19:03;;;;;;;0.13;0.13;;;8.50;99.90;;;;;;5010182;28;20232;-57
2023/12/11 05:21:30;;;;;;;0.43;0.20;;;8.40;99.90;;;;;;5011404;28;20893;-57
2023/12/11 05:23:57;;;;;;;1.90;0.20;;;8.40;99.90;;;;;;5010191;28;20731;-57
2023/12/11 05:26:24;;;;;;;0.20;0.20;;;8.50;99.90;;;;;;5011110;28;20732;-57
2023/12/11 05:28:51;;;;;;;1.23;0.20;;;8.40;99.90;;;;;;5009478;28;20273;-57
2023/12/11 05:31:18;;;;;;;0.10;0.10;;;8.50;99.90;;;;;;5011231;28;20632;-57
2023/12/11 05:33:45;;;;;;;0.53;0.20;;;8.50;99.90;;;;;;5011367;28;20201;-57
2023/12/11 05:36:13;;;;;;;0.20;0.10;;;8.40;99.90;;;;;;5010098;28;20210;-57
2023/12/11 05:38:40;;;;;;;0.10;0.10;;;8.40;99.90;;;;;;5010484;28;20229;-56
2023/12/11 05:41:07;;;;;;;2.77;0.23;;;8.40;99.90;;;;;;5011372;28;20341;-57
2023/12/11 05:43:35;;;;;;;0.20;0.10;;;8.30;99.90;;;;;;5009988;28;20699;-57
2023/12/11 05:46:02;;;;;;;1.13;0.40;;;8.30;99.90;;;;;;5012071;28;20656;-57
2023/12/11 05:48:29;;;;;;;0.67;0.20;;;8.30;99.90;;;;;;5004169;28;20219;-57
2023/12/11 05:50:56;;;;;;;0.30;0.20;;;8.40;99.90;;;;;;5014773;28;20205;-57
2023/12/11 05:53:24;;;;;;;0.00;0.00;;;8.40;99.90;;;;;;5014190;28;20210;-56
2023/12/11 05:55:51;;;;;;;0.90;0.10;;;8.40;99.90;;;;;;5021833;28;20571;-56
2023/12/11 05:58:18;;;;;;;0.40;0.10;;;8.50;99.90;;;;;;5013967;28;20229;-57
2023/12/11 06:00:46;;;;;;;0.10;0.10;;;8.50;99.90;;;;;;5013623;28;20201;-56
2023/12/11 06:03:13;;;;;;;0.00;0.00;;;8.50;99.90;;;;;;5012189;28;20213;-57
2023/12/11 06:05:40;;;;;;;0.50;0.10;;;8.50;99.90;;;;;;5021974;28;20205;-57
2023/12/11 06:08:07;;;;;;;0.10;0.00;;;8.60;99.90;;;;;;5013504;28;20627;-57
2023/12/11 06:10:35;;;;;;;0.40;0.10;;;8.50;99.90;;;;;;5013981;28;20803;-57
2023/12/11 06:13:02;;;;;;;0.10;0.10;;;8.50;99.90;;;;;;5014064;28;20197;-57
2023/12/11 06:15:29;;;;;;;0.00;0.00;;;8.50;99.90;;;;;;5012936;28;20208;-57
2023/12/11 06:17:56;;;;;;;0.00;0.00;;;8.40;99.90;;;;;;5013720;28;20374;-57
2023/12/11 06:20:23;;;;;;;0.10;0.10;;;8.30;99.90;;;;;;5013641;28;20212;-56
2023/12/11 06:22:51;;;;;;;0.20;0.20;;;8.30;99.90;;;;;;5023188;28;20668;-56
2023/12/11 06:25:18;;;;;;;0.53;0.20;;;8.30;99.90;;;;;;5013943;28;20212;-57
2023/12/11 06:27:46;;;;;;;2.03;0.10;;;8.30;99.90;;;;;;5013072;28;20308;-57
2023/12/11 06:30:14;;;;;;;1.27;0.20;;;8.30;99.90;;;;;;5011081;28;20251;-58
2023/12/11 06:32:41;;;;;;;2.67;0.17;;;8.20;99.90;;;;;;5021304;28;20262;-57
2023/12/11 06:35:08;;;;;;;0.10;0.07;;;8.20;99.90;;;;;;5012709;28;20207;-57
2023/12/11 06:37:35;;;;;;;1.07;0.10;;;8.20;99.90;;;;;;5019486;28;20228;-57
2023/12/11 06:40:03;;;;;;;1.80;0.20;;;8.20;99.90;;;;;;5007452;28;20197;-57
2023/12/11 06:42:32;;;;;;;0.40;0.30;;;8.10;99.90;;;;;;5016380;28;20209;-57
2023/12/11 06:45:01;;;;;;;0.83;0.23;;;8.10;99.90;;;;;;5013313;28;20196;-57
2023/12/11 06:47:28;;;;;;;0.17;0.17;;;8.00;99.90;;;;;;5013068;28;20256;-57
2023/12/11 06:49:55;;;;;;;0.23;0.10;;;8.00;99.90;;;;;;5014774;28;20275;-57
2023/12/11 06:52:22;;;;;;;2.33;0.10;;;8.00;99.90;;;;;;5014952;28;20205;-57
2023/12/11 06:54:49;;;;;;;0.20;0.20;;;8.10;99.90;;;;;;5013237;28;20205;-56
2023/12/11 06:57:16;;;;;;;1.07;0.17;;;8.10;99.90;;;;;;5012623;28;20256;-56
2023/12/11 06:59:42;;;;;;;0.70;0.23;;;8.20;99.90;;;;;;5012014;28;21260;-57
2023/12/11 07:02:11;;;;;;;0.53;0.17;;;8.10;99.90;;;;;;5013116;28;20630;-57
2023/12/11 07:04:41;;;;;;;1.80;0.27;;;8.20;99.90;;;;;;5012914;28;20558;-57
2023/12/11 07:07:08;;;;;;;0.63;0.30;;;8.10;99.90;;;;;;5012616;28;20260;-57
2023/12/11 07:09:35;;;;;;;0.30;0.30;;;8.10;99.90;;;;;;5012498;28;20276;-57
2023/12/11 07:12:02;;;;;;;0.17;0.17;;;8.20;99.90;;;;;;5018056;28;20197;-56
2023/12/11 07:14:29;;;;;;;1.03;0.20;;;8.20;99.90;;;;;;5011696;28;20201;-56
2023/12/11 07:16:56;;;;;;;0.20;0.20;;;8.20;99.90;;;;;;5013068;28;20197;-57
2023/12/11 07:19:25;;;;;;;0.80;0.70;;;8.20;99.90;;;;;;5011544;28;20705;-57
2023/12/11 07:21:52;;;;;;;1.60;0.30;;;8.30;99.90;;;;;;5012764;28;20204;-57
2023/12/11 07:24:19;;;;;;;0.50;0.20;;;8.30;99.90;;;;;;5011719;28;20209;-57
2023/12/11 07:26:49;;;;;;;0.93;0.23;;;8.30;99.90;;;;;;5011705;28;20197;-56
2023/12/11 07:29:16;;;;;;;0.60;0.33;;;8.40;99.90;;;;;;5015158;28;20225;-57
2023/12/11 07:31:44;;;;;;;0.20;0.20;;;8.30;99.90;;;;;;5013567;28;20706;-57
2023/12/11 07:34:11;;;;;;;3.07;0.40;;;8.30;99.90;;;;;;5018360;28;20237;-57
2023/12/11 07:36:39;;;;;;;0.60;0.30;;;8.30;99.90;;;;;;5012058;28;20255;-56
2023/12/11 07:39:07;;;;;;;0.30;0.30;;;8.40;99.90;;;;;;5012242;28;20237;-57
2023/12/11 07:41:34;;;;;;;0.70;0.33;;;8.30;99.90;;;;;;5008858;28;20760;-56
2023/12/11 07:44:00;;;;;;;0.87;0.27;;;8.30;99.90;;;;;;5011931;28;20669;-56
2023/12/11 07:46:27;;;;;;;0.20;0.20;;;8.30;99.90;;;;;;5010594;28;20665;-56
2023/12/11 07:48:54;;;;;;;0.40;0.13;;;8.40;99.90;;;;;;5009075;28;20627;-57
2023/12/11 07:51:23;;;;;;;3.80;0.30;;;8.40;99.90;;;;;;5012248;28;20801;-56
2023/12/11 07:53:52;;;;;;;0.20;0.20;;;8.50;99.90;;;;;;5016404;28;20206;-57
2023/12/11 07:56:20;;;;;;;0.10;0.10;;;8.50;99.90;;;;;;5012153;28;20223;-57
2023/12/11 07:58:47;;;;;;;0.57;0.20;;;8.50;99.90;;;;;;5011674;28;20221;-57
2023/12/11 08:01:15;;;;;;;0.10;0.10;;;8.50;99.90;;;;;;5012174;28;20204;-62
2023/12/11 08:03:42;;;;;;;0.50;0.20;;;8.60;99.90;;;;;;5006096;28;20466;-56
2023/12/11 08:06:09;;;;;;;0.13;0.13;;;8.50;99.90;;;;;;5011566;28;20641;-57
2023/12/11 08:08:40;;;;;;;0.10;0.10;;;8.50;99.90;;;;;;5010714;28;20631;-57
2023/12/11 08:11:16;;;;;;;0.10;0.10;;;8.50;99.90;;;;;;5011101;28;20209;-57
2023/12/11 08:13:43;;;;;;;0.83;0.20;;;8.40;99.90;;;;;;5014348;28;20672;-57
2023/12/11 08:16:11;;;;;;;0.23;0.10;;;8.50;99.90;;;;;;5011392;28;20661;-57
2023/12/11 08:18:38;;;;;;;1.03;0.30;;;8.50;99.90;;;;;;5011042;28;20786;-57
2023/12/11 08:21:06;;;;;;;2.23;1.73;;;8.40;99.90;;;;;;5011722;28;20209;-57
2023/12/11 08:23:33;;;;;;;7.73;1.37;;;8.30;99.90;;;;;;5011832;28;20272;-56
2023/12/11 08:26:00;;;;;;;2.00;0.20;;;8.30;99.90;;;;;;5006974;28;20206;-56
2023/12/11 08:28:29;;;;;;;0.50;0.40;;;8.20;99.90;;;;;;5011997;28;20220;-57
2023/12/11 08:30:56;;;;;;;0.50;0.50;;;8.10;99.90;;;;;;5011197;28;20205;-57
2023/12/11 08:33:23;;;;;;;1.23;0.27;;;8.10;99.90;;;;;;5011408;28;20212;-57
2023/12/11 08:35:50;;;;;;;0.30;0.20;;;7.90;99.90;;;;;;5007286;28;20200;-57
2023/12/11 08:38:17;;;;;;;0.20;0.20;;;7.90;99.90;;;;;;5010930;28;20305;-56
2023/12/11 08:40:45;;;;;;;0.93;0.23;;;7.80;99.90;;;;;;5000732;28;20229;-56
2023/12/11 08:43:12;;;;;;;2.20;0.30;;;7.80;99.90;;;;;;5005756;28;20630;-57
2023/12/11 08:45:40;;;;;;;0.60;0.20;;;7.80;99.90;;;;;;5009044;28;20286;-57
2023/12/11 08:48:07;;;;;;;1.10;0.30;;;7.80;99.90;;;;;;5004750;28;20280;-57
2023/12/11 08:50:34;;;;;;;0.10;0.10;;;7.80;99.90;;;;;;5006653;28;20713;-57
2023/12/11 08:53:03;;;;;;;0.77;0.20;;;7.80;99.90;;;;;;5010419;28;20207;-57
2023/12/11 08:55:30;;;;;;;0.33;0.17;;;7.80;99.90;;;;;;5014479;28;20241;-57
2023/12/11 08:57:57;;;;;;;4.03;0.20;;;7.70;99.90;;;;;;5010871;28;20233;-57
2023/12/11 09:00:24;;;;;;;1.60;0.20;;;7.80;99.90;;;;;;5003042;28;20280;-57
2023/12/11 09:02:53;;;;;;;1.83;0.73;;;7.80;99.90;;;;;;5003117;28;20550;-56
2023/12/11 09:05:20;;;;;;;1.20;0.20;;;7.80;99.90;;;;;;5002074;28;20288;-57
2023/12/11 09:07:47;;;;;;;5.33;1.70;;;7.80;99.90;;;;;;5007496;28;20221;-57
2023/12/11 09:10:14;;;;;;;0.73;0.40;;;7.70;99.90;;;;;;5014325;28;20208;-57
2023/12/11 09:12:41;;;;;;;2.13;0.50;;;7.70;99.90;;;;;;5013700;28;20200;-57
2023/12/11 09:15:09;;;;;;;1.33;0.63;;;7.80;99.90;;;;;;5005439;28;20205;-57
2023/12/11 09:17:37;;;;;;;4.37;0.40;;;7.80;99.90;;;;;;5010367;28;20275;-57
2023/12/11 09:20:08;;;;;;;2.83;0.33;;;7.80;99.90;;;;;;5010855;28;20224;-57
2023/12/11 09:22:36;;;;;;;1.27;0.30;;;7.70;99.90;;;;;;5009995;28;20209;-57
2023/12/11 09:25:03;;;;;;;1.23;0.17;;;7.70;99.90;;;;;;5016512;28;20200;-56
2023/12/11 09:27:30;;;;;;;1.27;0.40;;;7.70;99.90;;;;;;5011987;28;20201;-56
2023/12/11 09:29:57;;;;;;;2.23;0.50;;;7.70;99.90;;;;;;5020984;28;20709;-57
2023/12/11 09:32:24;;;;;;;3.33;0.50;;;7.70;99.90;;;;;;5014100;28;20293;-57
2023/12/11 09:34:52;;;;;;;0.60;0.43;;;7.70;99.90;;;;;;5023921;28;20228;-56
2023/12/11 09:37:21;;;;;;;2.00;0.40;;;7.70;99.90;;;;;;5014115;28;20295;-57
2023/12/11 09:39:49;;;;;;;0.20;0.20;;;7.80;99.90;;;;;;5009800;28;20716;-62
2023/12/11 09:42:16;;;;;;;0.90;0.23;;;7.70;99.90;;;;;;5007372;28;20260;-61
2023/12/11 09:44:45;;;;;;;0.37;0.33;;;7.70;99.90;;;;;;5013483;28;20207;-61
2023/12/11 09:47:16;;;;;;;0.50;0.20;;;7.70;99.90;;;;;;5014137;28;20200;-61
2023/12/11 09:49:45;;;;;;;0.77;0.30;;;7.70;99.90;;;;;;5022295;28;20286;-61
2023/12/11 09:52:13;;;;;;;0.17;0.10;;;7.60;99.90;;;;;;5013966;28;20263;-61
2023/12/11 09:54:41;;;;;;;0.63;0.30;;;7.60;99.90;;;;;;5013575;28;20681;-62
2023/12/11 09:57:11;;;;;;;0.80;0.30;;;7.60;99.90;;;;;;5013848;28;20212;-62
2023/12/11 09:59:39;;;;;;;1.10;0.30;;;7.60;99.90;;;;;;5006741;28;20713;-60
2023/12/11 10:02:12;;;;;;;0.30;0.30;;;7.60;99.90;;;;;;5014160;28;20202;-62
2023/12/11 10:04:39;;;;;;;1.60;0.50;;;7.60;99.90;;;;;;5008759;28;20205;-56
2023/12/11 10:07:06;;;;;;;1.30;0.60;;;7.60;99.90;;;;;;5007980;28;20672;-64
2023/12/11 10:09:34;;;;;;;0.97;0.50;;;7.70;99.90;;;;;;5012250;28;20631;-64
2023/12/11 10:12:04;;;;;;;0.70;0.40;;;7.60;99.90;;;;;;5012427;28;20247;-63
2023/12/11 10:14:31;;;;;;;0.57;0.30;;;7.60;99.90;;;;;;5014132;28;20260;-64
2023/12/11 10:16:59;;;;;;;0.40;0.33;;;7.60;99.90;;;;;;5015875;28;20349;-66
2023/12/11 10:19:32;;;;;;;0.57;0.40;;;7.60;99.90;;;;;;5002967;28;20273;-61
2023/12/11 10:22:00;;;;;;;0.50;0.50;;;7.60;99.90;;;;;;5009871;28;20744;-61
2023/12/11 10:24:30;;;;;;;2.73;0.80;;;7.60;99.90;;;;;;5013576;28;20239;-61
2023/12/11 10:26:58;;;;;;;2.47;0.90;;;7.60;99.90;;;;;;5006020;28;20591;-59
2023/12/11 10:29:30;;;;;;;0.60;0.50;;;7.50;99.90;;;;;;5013287;28;20221;-60
2023/12/11 10:32:02;;;;;;;2.50;0.50;;;7.60;99.90;;;;;;5006457;28;20263;-59
2023/12/11 10:34:45;;;;;;;2.43;0.60;;;7.60;99.90;;;;;;5014321;28;20252;-58
2023/12/11 10:37:13;;;;;;;0.33;0.33;;;7.60;99.90;;;;;;5000083;28;20212;-64
2023/12/11 10:39:52;;;;;;;1.77;0.70;;;7.60;99.90;;;;;;5011576;28;20252;-59
2023/12/11 10:42:19;;;;;;;2.50;0.53;;;7.50;99.90;;;;;;5013201;28;20247;-59
2023/12/11 10:44:48;;;;;;;1.13;0.80;;;7.50;99.90;;;;;;5013461;28;20237;-58
2023/12/11 10:47:16;;;;;;;0.57;0.50;;;7.40;99.90;;;;;;5012806;28;20214;-58
2023/12/11 10:49:44;;;;;;;0.67;0.47;;;7.50;99.90;;;;;;5011350;28;20208;-58
2023/12/11 10:52:11;;;;;;;1.03;0.60;;;7.50;99.90;;;;;;5014202;28;20296;-58
2023/12/11 10:54:41;;;;;;;1.43;0.50;;;7.40;99.90;;;;;;5016508;28;20201;-63
2023/12/11 10:57:13;;;;;;;2.20;0.40;;;7.40;99.90;;;;;;5008710;28;20208;-59
2023/12/11 10:59:40;;;;;;;0.60;0.60;;;7.40;99.90;;;;;;5010959;28;20224;-60
2023/12/11 11:02:10;;;;;;;1.07;0.70;;;7.50;99.90;;;;;;5011358;28;20200;-61
2023/12/11 11:04:40;;;;;;;0.70;0.57;;;7.50;99.90;;;;;;5013904;28;20209;-65
2023/12/11 11:07:14;;;;;;;0.83;0.60;;;7.50;99.90;;;;;;5011907;28;20666;-59
2023/12/11 11:09:50;;;;;;;0.83;0.60;;;7.40;99.90;;;;;;5007628;28;20214;-59
2023/12/11 11:12:28;;;;;;;0.90;0.50;;;7.50;99.90;;;;;;5012799;28;20286;-61
2023/12/11 11:14:55;;;;;;;0.77;0.50;;;7.50;99.90;;;;;;5018613;28;20244;-60
2023/12/11 11:17:23;;;;;;;0.57;0.53;;;7.50;99.90;;;;;;5011794;28;20296;-62
2023/12/11 11:20:12;;;;;;;0.90;0.60;;;7.50;99.90;;;;;;5012407;28;20225;-59
2023/12/11 11:22:39;;;;;;;0.50;0.50;;;7.60;99.90;;;;;;5011938;28;20212;-62
2023/12/11 11:25:32;;;;;;;1.03;0.90;;;7.60;99.90;;;;;;5007267;28;20205;-63
2023/12/11 11:27:58;;;;;;;2.00;0.50;;;7.60;99.90;;;;;;5011091;28;20648;-63
2023/12/11 11:30:48;;;;;;;0.43;0.43;;;7.60;99.90;;;;;;5012534;28;20354;-63
2023/12/11 11:33:16;;;;;;;0.40;0.40;;;7.70;99.90;;;;;;5008556;28;20277;-60
2023/12/11 11:35:51;;;;;;;2.47;0.57;;;7.60;99.90;;;;;;5014388;28;20570;-61
2023/12/11 11:38:19;;;;;;;1.53;0.70;;;7.70;99.90;;;;;;5011404;28;20240;-60
2023/12/11 11:40:48;;;;;;;0.83;0.40;;;7.70;99.90;;;;;;5011054;28;20808;-60
2023/12/11 11:43:15;;;;;;;2.00;0.30;;;7.80;99.90;;;;;;5008728;28;20757;-60
2023/12/11 11:45:44;;;;;;;2.03;0.43;;;7.80;99.90;;;;;;5012744;28;20279;-61
2023/12/11 11:48:11;;;;;;;1.30;0.30;;;7.80;99.90;;;;;;5011689;28;20229;-61
2023/12/11 11:50:53;;;;;;;0.77;0.77;;;7.80;99.90;;;;;;5013587;28;20200;-61
2023/12/11 11:53:21;;;;;;;1.37;0.40;;;7.80;99.90;;;;;;5016986;28;20209;-64
2023/12/11 11:55:48;;;;;;;0.40;0.30;;;7.80;99.90;;;;;;5011933;28;21424;-62
2023/12/11 11:58:16;;;;;;;1.83;1.53;;;7.80;99.90;;;;;;5011490;28;20749;-63
2023/12/11 12:00:45;;;;;;;1.50;0.50;;;7.80;99.90;;;;;;5011716;28;20717;-64
2023/12/11 12:03:12;;;;;;;0.40;0.40;;;7.90;99.90;;;;;;5011966;28;20205;-63
2023/12/11 12:05:55;;;;;;;0.30;0.30;;;7.80;99.90;;;;;;5011999;28;20204;-65
2023/12/11 12:08:23;;;;;;;0.70;0.53;;;7.80;99.90;;;;;;5006803;28;20363;-64
2023/12/11 12:10:50;;;;;;;0.40;0.30;;;7.80;99.90;;;;;;5012914;28;20204;-64
2023/12/11 12:13:17;;;;;;;0.60;0.40;;;7.80;99.90;;;;;;5009802;28;20206;-65
2023/12/11 12:15:45;;;;;;;1.13;0.60;;;7.80;99.90;;;;;;5013258;28;20203;-64
2023/12/11 12:18:12;;;;;;;1.03;0.77;;;7.80;99.90;;;;;;5009467;28;20250;-63
2023/12/11 12:20:40;;;;;;;0.60;0.40;;;7.70;99.90;;;;;;5010152;28;20217;-63
2023/12/11 12:23:08;;;;;;;2.57;0.87;;;7.70;99.90;;;;;;5003986;28;20252;-62
2023/12/11 12:25:36;;;;;;;0.70;0.50;;;7.70;99.90;;;;;;5011342;28;20673;-64
2023/12/11 12:28:06;;;;;;;1.90;0.60;;;7.60;99.90;;;;;;5010550;28;20640;-62
2023/12/11 12:30:34;;;;;;;1.27;0.50;;;7.50;99.90;;;;;;5011813;28;20209;-63
2023/12/11 12:33:03;;;;;;;3.90;0.60;;;7.50;99.90;;;;;;5013561;28;20259;-63
2023/12/11 12:35:33;;;;;;;1.43;0.90;;;7.50;99.90;;;;;;5015946;28;20235;-64
2023/12/11 12:38:02;;;;;;;3.00;1.43;;;7.50;99.90;;;;;;5010271;28;20293;-62
2023/12/11 12:40:33;;;;;;;0.83;0.83;;;7.50;99.90;;;;;;5010546;28;20299;-62
2023/12/11 12:43:01;;;;;;;1.57;0.80;;;7.60;99.90;;;;;;5004281;28;20280;-63
2023/12/11 12:45:32;;;;;;;1.50;0.93;;;7.60;99.90;;;;;;5011468;28;20208;-63
2023/12/11 12:47:59;;;;;;;0.80;0.80;;;7.70;99.90;;;;;;5010928;28;20260;-64
2023/12/11 12:50:28;;;;;;;2.17;1.07;;;7.70;99.90;;;;;;5011023;28;20204;-64
2023/12/11 12:53:05;;;;;;;2.97;1.00;;;7.80;99.90;;;;;;5016833;28;20232;-64
2023/12/11 12:55:33;;;;;;;2.00;1.00;;;7.70;99.90;;;;;;5007996;28;20234;-65
2023/12/11 12:58:00;;;;;;;1.83;0.80;;;7.70;99.90;;;;;;4999195;28;20229;-62
2023/12/11 13:00:27;;;;;;;0.87;0.87;;;7.70;99.90;;;;;;5015367;28;20221;-63
2023/12/11 13:02:55;;;;;;;1.33;1.17;;;7.60;99.90;;;;;;5015330;28;20228;-64